createdAt,value
2018-05-05T00:00:16.666Z,5.07
2018-05-05T00:02:45.016Z,5.13
2018-05-05T00:05:13.176Z,6.10
2018-05-05T00:07:41.296Z,5.57
2018-05-05T00:10:09.737Z,5.10
2018-05-05T00:12:38.396Z,4.97
2018-05-05T00:15:06.334Z,5.10
2018-05-05T00:17:34.175Z,5.50
2018-05-05T00:20:02.134Z,6.07
2018-05-05T00:22:30.015Z,5.83
2018-05-05T00:24:57.854Z,6.50
2018-05-05T00:27:25.654Z,6.63
2018-05-05T00:29:53.838Z,6.70
2018-05-05T00:32:21.939Z,7.57
2018-05-05T00:34:50.200Z,7.57
2018-05-05T00:37:18.178Z,6.80
2018-05-05T00:39:46.078Z,5.87
2018-05-05T00:42:14.078Z,5.80
2018-05-05T00:44:41.898Z,5.53
2018-05-05T00:47:09.827Z,5.53
2018-05-05T00:49:37.819Z,5.63
2018-05-05T00:52:06.644Z,5.53
2018-05-05T00:54:47.059Z,5.60
2018-05-05T00:57:15.059Z,4.90
2018-05-05T00:59:42.998Z,4.80
2018-05-05T01:02:12.255Z,4.93
2018-05-05T01:04:40.157Z,5.10
2018-05-05T01:07:08.156Z,4.80
2018-05-05T01:09:36.336Z,5.00
2018-05-05T01:12:04.176Z,4.77
2018-05-05T01:14:33.457Z,4.50
2018-05-05T01:17:01.176Z,4.33
2018-05-05T01:19:29.097Z,4.87
2018-05-05T01:21:57.337Z,4.40
2018-05-05T01:24:25.896Z,4.50
2018-05-05T01:26:54.298Z,4.50
2018-05-05T01:29:22.467Z,3.83
2018-05-05T01:31:50.357Z,4.43
2018-05-05T01:34:18.216Z,4.40
2018-05-05T01:36:46.058Z,4.40
2018-05-05T01:39:14.158Z,4.27
2018-05-05T01:41:42.856Z,4.33
2018-05-05T01:44:10.695Z,4.13
2018-05-05T01:46:39.134Z,5.07
2018-05-05T01:49:07.734Z,5.13
2018-05-05T01:51:35.574Z,4.83
2018-05-05T01:54:03.578Z,5.07
2018-05-05T01:56:31.676Z,4.20
2018-05-05T01:59:01.656Z,4.60
2018-05-05T02:01:30.354Z,4.27
2018-05-05T02:03:58.954Z,4.37
2018-05-05T02:06:26.814Z,4.23
2018-05-05T02:08:54.614Z,3.93
2018-05-05T02:11:22.415Z,3.50
2018-05-05T02:13:50.194Z,3.73
2018-05-05T02:16:18.176Z,4.00
2018-05-05T02:18:46.057Z,3.73
2018-05-05T02:21:14.177Z,3.67
2018-05-05T02:23:42.060Z,3.50
2018-05-05T02:26:09.997Z,4.33
2018-05-05T02:28:38.716Z,3.87
2018-05-05T02:31:07.954Z,4.13
2018-05-05T02:33:35.853Z,4.80
2018-05-05T02:36:03.774Z,4.20
2018-05-05T02:38:31.615Z,4.40
2018-05-05T02:40:59.514Z,4.23
2018-05-05T02:43:27.454Z,4.13
2018-05-05T02:45:55.734Z,4.40
2018-05-05T02:48:23.693Z,4.83
2018-05-05T02:50:51.534Z,4.60
2018-05-05T02:53:19.574Z,4.87
2018-05-05T02:55:47.534Z,4.70
2018-05-05T02:58:15.533Z,5.10
2018-05-05T03:00:43.734Z,5.30
2018-05-05T03:03:12.014Z,5.20
2018-05-05T03:05:40.694Z,4.73
2018-05-05T03:08:08.534Z,5.00
2018-05-05T03:10:38.417Z,5.27
2018-05-05T03:13:06.256Z,5.37
2018-05-05T03:15:35.314Z,5.70
2018-05-05T03:18:03.373Z,5.50
2018-05-05T03:20:31.093Z,6.23
2018-05-05T03:22:59.835Z,6.70
2018-05-05T03:25:27.835Z,5.90
2018-05-05T03:27:55.774Z,5.93
2018-05-05T03:30:25.550Z,5.80
2018-05-05T03:32:54.394Z,6.47
2018-05-05T03:35:22.333Z,6.10
2018-05-05T03:37:50.234Z,6.23
2018-05-05T03:40:18.854Z,6.37
2018-05-05T03:42:46.733Z,6.43
2018-05-05T03:45:14.554Z,6.37
2018-05-05T03:47:42.373Z,6.87
2018-05-05T03:50:10.297Z,6.87
2018-05-05T03:52:39.256Z,7.10
2018-05-05T03:55:07.235Z,7.40
2018-05-05T03:57:35.255Z,7.03
2018-05-05T04:00:15.270Z,7.60
2018-05-05T04:02:55.639Z,7.37
2018-05-05T04:08:22.258Z,7.07
2018-05-05T04:10:50.119Z,7.40
2018-05-05T04:13:18.078Z,6.80
2018-05-05T04:15:46.138Z,7.10
2018-05-05T04:18:14.378Z,7.43
2018-05-05T04:20:42.171Z,6.93
2018-05-05T04:23:12.838Z,7.90
2018-05-05T04:25:40.778Z,6.93
2018-05-05T04:28:08.738Z,7.33
2018-05-05T04:30:36.837Z,6.30
2018-05-05T04:33:04.837Z,6.50
2018-05-05T04:35:32.742Z,6.47
2018-05-05T04:38:00.658Z,6.87
2018-05-05T04:40:28.657Z,5.93
2018-05-05T04:42:56.717Z,6.00
2018-05-05T04:45:24.702Z,6.00
2018-05-05T04:47:52.580Z,5.97
2018-05-05T04:50:20.777Z,6.27
2018-05-05T04:52:48.799Z,6.37
2018-05-05T04:55:16.737Z,6.30
2018-05-05T04:57:44.697Z,6.07
2018-05-05T05:00:12.478Z,6.57
2018-05-05T05:02:40.437Z,6.30
2018-05-05T05:05:08.811Z,5.97
2018-05-05T05:07:36.746Z,6.30
2018-05-05T05:10:04.800Z,6.77
2018-05-05T05:12:32.926Z,6.40
2018-05-05T05:15:00.900Z,7.17
2018-05-05T05:17:28.900Z,6.37
2018-05-05T05:19:56.738Z,6.87
2018-05-05T05:22:24.638Z,6.80
2018-05-05T05:24:52.972Z,6.97
2018-05-05T05:27:20.920Z,6.43
2018-05-05T05:29:48.904Z,6.50
2018-05-05T05:32:16.859Z,6.50
2018-05-05T05:34:44.778Z,6.20
2018-05-05T05:37:13.100Z,6.13
2018-05-05T05:39:41.277Z,6.47
2018-05-05T05:42:09.138Z,5.77
2018-05-05T05:44:37.038Z,6.27
2018-05-05T05:47:05.059Z,6.03
2018-05-05T05:49:32.974Z,6.13
2018-05-05T05:52:00.834Z,6.00
2018-05-05T05:54:29.856Z,6.30
2018-05-05T05:56:57.815Z,6.00
2018-05-05T05:59:25.914Z,6.50
2018-05-05T06:01:53.799Z,6.03
2018-05-05T06:04:21.698Z,6.27
2018-05-05T06:06:50.759Z,5.40
2018-05-05T06:09:18.739Z,5.53
2018-05-05T06:11:47.019Z,5.80
2018-05-05T06:14:15.219Z,5.50
2018-05-05T06:16:43.119Z,5.70
2018-05-05T06:19:11.258Z,5.50
2018-05-05T06:21:39.139Z,5.43
2018-05-05T06:24:07.059Z,6.00
2018-05-05T06:26:35.099Z,5.47
2018-05-05T06:29:03.078Z,5.47
2018-05-05T06:31:30.979Z,5.87
2018-05-05T06:33:58.819Z,5.73
2018-05-05T06:36:26.698Z,5.80
2018-05-05T06:38:54.599Z,5.93
2018-05-05T06:41:22.579Z,5.97
2018-05-05T06:43:50.455Z,5.47
2018-05-05T06:46:18.334Z,5.70
2018-05-05T06:48:46.236Z,5.53
2018-05-05T06:51:14.136Z,5.33
2018-05-05T06:53:41.957Z,6.10
2018-05-05T06:56:09.897Z,5.70
2018-05-05T06:58:37.677Z,5.83
2018-05-05T07:01:06.836Z,5.63
2018-05-05T07:03:34.937Z,6.30
2018-05-05T07:06:02.875Z,6.23
2018-05-05T07:08:31.576Z,6.23
2018-05-05T07:10:59.716Z,6.40
2018-05-05T07:13:27.614Z,6.00
2018-05-05T07:15:55.495Z,7.80
2018-05-05T07:18:23.537Z,6.57
2018-05-05T07:20:51.375Z,6.10
2018-05-05T07:23:19.600Z,6.37
2018-05-05T07:25:47.515Z,6.63
2018-05-05T07:28:15.335Z,7.47
2018-05-05T07:30:43.300Z,6.93
2018-05-05T07:33:11.535Z,7.13
2018-05-05T07:35:39.460Z,7.73
2018-05-05T07:38:07.275Z,8.20
2018-05-05T07:40:35.117Z,7.60
2018-05-05T07:43:03.577Z,7.63
2018-05-05T07:45:32.000Z,7.97
2018-05-05T07:48:00.157Z,7.83
2018-05-05T07:50:28.877Z,7.33
2018-05-05T07:52:56.658Z,7.03
2018-05-05T07:55:24.656Z,7.70
2018-05-05T07:57:52.557Z,7.93
2018-05-05T08:00:20.186Z,7.40
2018-05-05T08:02:48.143Z,8.37
2018-05-05T08:05:15.929Z,7.77
2018-05-05T08:07:44.221Z,8.10
2018-05-05T08:10:12.140Z,7.67
2018-05-05T08:12:39.878Z,7.93
2018-05-05T08:15:07.716Z,7.90
2018-05-05T08:17:36.215Z,7.47
2018-05-05T08:20:04.076Z,7.17
2018-05-05T08:22:31.897Z,7.27
2018-05-05T08:25:00.056Z,6.40
2018-05-05T08:27:27.685Z,7.13
2018-05-05T08:29:55.443Z,7.10
2018-05-05T08:32:23.268Z,7.57
2018-05-05T08:34:50.907Z,7.00
2018-05-05T08:37:19.324Z,7.53
2018-05-05T08:39:47.030Z,6.57
2018-05-05T08:42:14.667Z,6.50
2018-05-05T08:44:42.369Z,6.27
2018-05-05T08:47:10.116Z,7.47
2018-05-05T08:49:37.804Z,6.47
2018-05-05T08:52:05.465Z,6.67
2018-05-05T08:54:33.290Z,6.87
2018-05-05T08:57:01.746Z,6.63
2018-05-05T08:59:29.488Z,7.30
2018-05-05T09:01:57.206Z,7.30
2018-05-05T09:04:25.781Z,6.97
2018-05-05T09:06:54.653Z,7.10
2018-05-05T09:09:22.363Z,6.63
2018-05-05T09:11:50.008Z,6.63
2018-05-05T09:14:17.661Z,6.97
2018-05-05T09:16:45.447Z,7.77
2018-05-05T09:19:13.114Z,7.13
2018-05-05T09:21:40.745Z,7.17
2018-05-05T09:24:08.533Z,7.30
2018-05-05T09:26:36.170Z,7.43
2018-05-05T09:29:03.818Z,6.80
2018-05-05T09:31:31.586Z,6.77
2018-05-05T09:33:59.233Z,7.03
2018-05-05T09:36:27.688Z,7.90
2018-05-05T09:38:55.414Z,7.63
2018-05-05T09:41:23.218Z,8.07
2018-05-05T09:43:50.970Z,7.83
2018-05-05T09:46:18.729Z,7.93
2018-05-05T09:48:46.645Z,7.10
2018-05-05T09:51:14.320Z,7.70
2018-05-05T09:53:42.086Z,7.30
2018-05-05T09:56:09.742Z,7.30
2018-05-05T09:58:37.393Z,7.60
2018-05-05T10:01:05.176Z,7.93
2018-05-05T10:06:04.652Z,8.37
2018-05-05T10:08:32.446Z,7.87
2018-05-05T10:11:00.112Z,7.07
2018-05-05T10:13:27.832Z,7.97
2018-05-05T10:15:55.557Z,7.90
2018-05-05T10:18:23.150Z,7.43
2018-05-05T10:20:50.902Z,7.57
2018-05-05T10:23:18.578Z,7.53
2018-05-05T10:25:46.254Z,7.87
2018-05-05T10:28:14.355Z,8.00
2018-05-05T10:30:42.082Z,7.43
2018-05-05T10:33:09.761Z,7.57
2018-05-05T10:35:38.282Z,7.83
2018-05-05T10:38:05.948Z,7.53
2018-05-05T10:40:33.568Z,7.87
2018-05-05T10:43:01.560Z,8.27
2018-05-05T10:45:29.839Z,7.23
2018-05-05T10:47:58.440Z,8.60
2018-05-05T10:50:26.321Z,8.17
2018-05-05T10:52:54.301Z,8.40
2018-05-05T10:55:22.255Z,7.80
2018-05-05T10:57:50.599Z,7.93
2018-05-05T11:00:18.267Z,8.13
2018-05-05T11:02:46.116Z,8.37
2018-05-05T11:05:14.197Z,7.90
2018-05-05T11:07:41.993Z,7.80
2018-05-05T11:10:10.336Z,7.87
2018-05-05T11:12:38.514Z,7.60
2018-05-05T11:15:07.215Z,7.50
2018-05-05T11:17:35.036Z,7.77
2018-05-05T11:20:03.076Z,7.57
2018-05-05T11:22:30.995Z,7.70
2018-05-05T11:24:58.835Z,8.40
2018-05-05T11:27:26.895Z,7.90
2018-05-05T11:29:54.793Z,8.43
2018-05-05T11:32:22.937Z,8.60
2018-05-05T11:34:50.897Z,8.20
2018-05-05T11:37:18.816Z,9.10
2018-05-05T11:39:47.736Z,8.83
2018-05-05T11:42:15.695Z,8.20
2018-05-05T11:44:44.050Z,8.73
2018-05-05T11:47:11.897Z,8.70
2018-05-05T11:49:41.295Z,8.73
2018-05-05T11:52:09.435Z,8.40
2018-05-05T11:54:37.316Z,8.73
2018-05-05T11:57:05.216Z,8.80
2018-05-05T11:59:33.234Z,8.80
2018-05-05T12:02:01.579Z,8.77
2018-05-05T12:04:30.178Z,8.43
2018-05-05T12:06:58.101Z,8.83
2018-05-05T12:09:25.918Z,8.20
2018-05-05T12:11:53.834Z,9.13
2018-05-05T12:14:21.660Z,8.97
2018-05-05T12:16:49.734Z,9.33
2018-05-05T12:19:17.925Z,9.83
2018-05-05T12:21:47.381Z,9.07
2018-05-05T12:24:15.219Z,9.20
2018-05-05T12:26:43.087Z,10.23
2018-05-05T12:29:10.921Z,9.00
2018-05-05T12:31:38.738Z,9.10
2018-05-05T12:34:06.897Z,8.60
2018-05-05T12:36:34.777Z,9.10
2018-05-05T12:39:02.677Z,9.17
2018-05-05T12:41:30.776Z,8.40
2018-05-05T12:43:58.597Z,9.50
2018-05-05T12:46:26.376Z,9.07
2018-05-05T12:48:54.398Z,8.93
2018-05-05T12:51:22.336Z,8.40
2018-05-05T12:53:50.236Z,8.70
2018-05-05T12:56:18.937Z,9.17
2018-05-05T12:58:46.676Z,8.87
2018-05-05T13:01:14.575Z,8.60
2018-05-05T13:03:42.824Z,9.30
2018-05-05T13:06:10.818Z,8.70
2018-05-05T13:08:38.737Z,10.40
2018-05-05T13:11:06.595Z,9.47
2018-05-05T13:13:34.515Z,9.90
2018-05-05T13:16:02.678Z,9.70
2018-05-05T13:18:30.715Z,11.03
2018-05-05T13:20:58.675Z,11.07
2018-05-05T13:23:26.656Z,10.00
2018-05-05T13:25:55.075Z,9.77
2018-05-05T13:28:23.075Z,9.10
2018-05-05T13:30:50.995Z,8.93
2018-05-05T13:33:18.955Z,9.43
2018-05-05T13:35:46.895Z,10.53
2018-05-05T13:38:16.215Z,10.40
2018-05-05T13:40:44.995Z,10.23
2018-05-05T13:43:12.856Z,10.10
2018-05-05T13:45:40.921Z,9.60
2018-05-05T13:48:08.877Z,10.10
2018-05-05T13:50:36.815Z,9.40
2018-05-05T13:53:04.976Z,9.53
2018-05-05T13:55:32.896Z,9.50
2018-05-05T13:58:00.675Z,9.33
2018-05-05T14:00:28.564Z,10.40
2018-05-05T14:02:56.495Z,10.17
2018-05-05T14:05:24.637Z,10.63
2018-05-05T14:07:52.657Z,9.63
2018-05-05T14:10:20.696Z,10.20
2018-05-05T14:12:49.077Z,10.63
2018-05-05T14:15:16.977Z,9.97
2018-05-05T14:17:45.037Z,10.83
2018-05-05T14:20:14.516Z,11.27
2018-05-05T14:22:42.200Z,11.13
2018-05-05T14:25:10.661Z,10.53
2018-05-05T14:27:38.664Z,10.23
2018-05-05T14:30:06.861Z,11.17
2018-05-05T14:32:35.040Z,10.53
2018-05-05T14:35:03.643Z,10.80
2018-05-05T14:37:31.460Z,11.40
2018-05-05T14:40:00.575Z,10.90
2018-05-05T14:42:28.606Z,10.70
2018-05-05T14:44:56.638Z,11.60
2018-05-05T14:47:24.400Z,11.00
2018-05-05T14:49:52.140Z,10.90
2018-05-05T14:52:19.943Z,10.83
2018-05-05T14:54:47.858Z,10.53
2018-05-05T14:57:16.179Z,11.73
2018-05-05T14:59:45.000Z,11.13
2018-05-05T15:02:12.898Z,11.93
2018-05-05T15:04:40.779Z,11.20
2018-05-05T15:07:08.718Z,10.73
2018-05-05T15:09:36.543Z,10.97
2018-05-05T15:12:05.260Z,10.90
2018-05-05T15:14:33.060Z,11.00
2018-05-05T15:17:01.046Z,11.53
2018-05-05T15:19:28.921Z,11.27
2018-05-05T15:21:56.740Z,11.07
2018-05-05T15:24:29.022Z,11.90
2018-05-05T15:26:56.856Z,12.37
2018-05-05T15:29:24.634Z,11.10
2018-05-05T15:31:52.538Z,11.77
2018-05-05T15:34:20.279Z,11.97
2018-05-05T15:36:48.216Z,12.43
2018-05-05T15:39:16.157Z,12.07
2018-05-05T15:41:44.017Z,10.40
2018-05-05T15:44:11.800Z,11.03
2018-05-05T15:46:39.677Z,11.53
2018-05-05T15:49:07.403Z,10.87
2018-05-05T15:51:35.183Z,11.53
2018-05-05T15:54:03.089Z,11.90
2018-05-05T15:56:31.120Z,11.07
2018-05-05T15:58:58.876Z,11.60
2018-05-05T16:01:26.676Z,10.80
2018-05-05T16:03:54.416Z,11.23
2018-05-05T16:06:22.167Z,11.67
2018-05-05T16:08:49.978Z,11.80
2018-05-05T16:11:18.300Z,11.37
2018-05-05T16:13:46.356Z,11.37
2018-05-05T16:16:14.237Z,10.40
2018-05-05T16:18:42.195Z,11.13
2018-05-05T16:21:10.870Z,11.90
2018-05-05T16:23:38.779Z,11.40
2018-05-05T16:26:06.939Z,10.97
2018-05-05T16:28:34.880Z,11.37
2018-05-05T16:31:03.560Z,11.77
2018-05-05T16:33:31.759Z,12.67
2018-05-05T16:36:01.161Z,11.63
2018-05-05T16:38:29.200Z,12.53
2018-05-05T16:40:57.942Z,11.73
2018-05-05T16:43:26.119Z,11.67
2018-05-05T16:45:54.047Z,12.03
2018-05-05T16:48:21.985Z,12.03
2018-05-05T16:50:50.222Z,12.37
2018-05-05T16:53:18.020Z,12.47
2018-05-05T16:55:45.861Z,12.23
2018-05-05T16:58:15.715Z,12.63
2018-05-05T17:00:43.642Z,13.70
2018-05-05T17:03:11.775Z,13.13
2018-05-05T17:05:39.576Z,13.13
2018-05-05T17:08:07.735Z,13.80
2018-05-05T17:10:35.835Z,13.97
2018-05-05T17:13:03.655Z,15.33
2018-05-05T17:15:31.735Z,16.30
2018-05-05T17:17:59.854Z,16.23
2018-05-05T17:20:27.734Z,16.00
2018-05-05T17:22:55.995Z,16.23
2018-05-05T17:25:24.696Z,16.57
2018-05-05T17:27:52.495Z,16.43
2018-05-05T17:30:20.375Z,16.60
2018-05-05T17:32:48.537Z,17.13
2018-05-05T17:35:16.491Z,15.73
2018-05-05T17:37:44.615Z,17.57
2018-05-05T17:40:12.375Z,17.97
2018-05-05T17:42:40.296Z,17.67
2018-05-05T17:45:08.277Z,18.00
2018-05-05T17:47:36.156Z,19.63
2018-05-05T17:50:04.118Z,19.23
2018-05-05T17:52:32.215Z,19.20
2018-05-05T17:55:00.038Z,18.33
2018-05-05T17:57:27.954Z,20.13
2018-05-05T17:59:56.053Z,18.80
2018-05-05T18:02:23.879Z,20.33
2018-05-05T18:04:51.699Z,18.73
2018-05-05T18:07:19.838Z,16.80
2018-05-05T18:09:48.478Z,18.67
2018-05-05T18:12:16.486Z,19.97
2018-05-05T18:14:45.147Z,19.93
2018-05-05T18:17:13.709Z,19.23
2018-05-05T18:19:41.710Z,20.10
2018-05-05T18:22:09.818Z,18.77
2018-05-05T18:24:37.781Z,17.60
2018-05-05T18:27:06.239Z,19.23
2018-05-05T18:29:34.379Z,19.60
2018-05-05T18:32:02.275Z,19.87
2018-05-05T18:34:31.069Z,20.27
2018-05-05T18:36:59.057Z,19.80
2018-05-05T18:39:26.909Z,19.57
2018-05-05T18:41:55.018Z,18.50
2018-05-05T18:44:23.176Z,19.70
2018-05-05T18:46:51.136Z,20.30
2018-05-05T18:49:20.177Z,19.63
2018-05-05T18:51:48.697Z,20.17
2018-05-05T18:54:16.718Z,18.70
2018-05-05T18:56:44.657Z,19.90
2018-05-05T18:59:12.558Z,20.27
2018-05-05T19:01:40.456Z,19.27
2018-05-05T19:06:42.137Z,20.50
2018-05-05T19:09:10.036Z,19.97
2018-05-05T19:11:38.638Z,20.10
2018-05-05T19:14:06.716Z,20.27
2018-05-05T19:16:34.680Z,19.10
2018-05-05T19:19:02.601Z,19.00
2018-05-05T19:21:30.768Z,18.03
2018-05-05T19:23:59.486Z,18.40
2018-05-05T19:26:27.945Z,20.23
2018-05-05T19:28:55.800Z,18.17
2018-05-05T19:31:23.809Z,19.70
2018-05-05T19:33:51.848Z,18.20
2018-05-05T19:36:19.810Z,19.23
2018-05-05T19:38:47.885Z,18.63
2018-05-05T19:41:15.980Z,18.20
2018-05-05T19:43:43.836Z,19.30
2018-05-05T19:46:12.021Z,18.57
2018-05-05T19:48:39.900Z,18.87
2018-05-05T19:51:07.859Z,18.23
2018-05-05T19:53:35.761Z,19.20
2018-05-05T19:56:03.692Z,20.07
2018-05-05T20:01:03.638Z,21.00
2018-05-05T20:03:31.537Z,21.70
2018-05-05T20:05:59.545Z,21.43
2018-05-05T20:08:27.478Z,20.90
2018-05-05T20:10:55.442Z,20.53
2018-05-05T20:13:23.418Z,20.50
2018-05-05T20:15:51.384Z,22.83
2018-05-05T20:18:20.376Z,23.27
2018-05-05T20:20:48.274Z,21.70
2018-05-05T20:23:16.275Z,20.50
2018-05-05T20:25:44.262Z,21.93
2018-05-05T20:28:12.243Z,19.63
2018-05-05T20:30:40.210Z,19.03
2018-05-05T20:33:08.262Z,18.57
2018-05-05T20:35:36.199Z,19.60
2018-05-05T20:38:04.096Z,19.17
2018-05-05T20:40:32.143Z,20.33
2018-05-05T20:43:00.203Z,20.70
2018-05-05T20:45:27.994Z,20.13
2018-05-05T20:47:55.711Z,20.77
2018-05-05T20:50:23.393Z,19.60
2018-05-05T20:55:23.676Z,18.80
2018-05-05T20:57:51.418Z,19.53
2018-05-05T21:00:19.268Z,19.70
2018-05-05T21:02:48.430Z,19.27
2018-05-05T21:05:16.255Z,17.83
2018-05-05T21:07:46.673Z,18.73
2018-05-05T21:10:14.580Z,18.03
2018-05-05T21:15:15.296Z,17.10
2018-05-05T21:17:43.050Z,17.80
2018-05-05T21:20:10.729Z,17.23
2018-05-05T21:22:38.454Z,17.13
2018-05-05T21:25:06.296Z,16.33
2018-05-05T21:27:33.988Z,16.97
2018-05-05T21:30:01.784Z,15.97
2018-05-05T21:32:29.861Z,15.53
2018-05-05T21:34:57.822Z,15.23
2018-05-05T21:37:25.702Z,14.60
2018-05-05T21:39:53.724Z,14.23
2018-05-05T21:42:21.638Z,14.47
2018-05-05T21:44:49.917Z,14.80
2018-05-05T21:47:18.537Z,14.97
2018-05-05T21:49:47.077Z,15.17
2018-05-05T21:52:14.937Z,15.93
2018-05-05T21:54:42.818Z,15.63
2018-05-05T21:57:10.704Z,15.20
2018-05-05T21:59:38.409Z,16.13
2018-05-05T22:02:06.498Z,17.00
2018-05-05T22:04:34.498Z,17.30
2018-05-05T22:07:02.575Z,15.83
2018-05-05T22:09:30.575Z,15.77
2018-05-05T22:11:58.557Z,13.07
2018-05-05T22:14:26.514Z,14.70
2018-05-05T22:16:54.498Z,16.17
2018-05-05T22:19:22.573Z,13.07
2018-05-05T22:21:51.473Z,15.20
2018-05-05T22:24:19.400Z,12.20
2018-05-05T22:26:47.040Z,13.30
2018-05-05T22:29:15.020Z,12.30
2018-05-05T22:31:43.275Z,12.07
2018-05-05T22:34:11.515Z,11.80
2018-05-05T22:36:39.454Z,12.73
2018-05-05T22:39:07.357Z,12.77
2018-05-05T22:41:35.371Z,12.20
2018-05-05T22:44:03.737Z,12.53
2018-05-05T22:46:31.655Z,12.63
2018-05-05T22:48:59.717Z,12.13
2018-05-05T22:51:27.515Z,12.40
2018-05-05T22:53:55.975Z,12.33
2018-05-05T22:56:24.216Z,13.00
2018-05-05T22:58:52.076Z,12.50
2018-05-05T23:01:20.021Z,12.97
2018-05-05T23:03:47.884Z,12.60
2018-05-05T23:06:15.720Z,12.17
2018-05-05T23:08:43.841Z,12.07
2018-05-05T23:11:12.221Z,11.57
2018-05-05T23:13:40.081Z,11.30
2018-05-05T23:16:07.980Z,11.40
2018-05-05T23:18:35.905Z,10.97
2018-05-05T23:21:03.840Z,11.47
2018-05-05T23:23:31.821Z,11.27
2018-05-05T23:25:59.660Z,11.73
2018-05-05T23:28:28.680Z,11.40
2018-05-05T23:30:57.120Z,11.57
2018-05-05T23:33:25.000Z,10.70
2018-05-05T23:35:53.140Z,11.03
2018-05-05T23:38:21.360Z,11.57
2018-05-05T23:40:49.268Z,11.60
2018-05-05T23:43:18.200Z,10.83
2018-05-05T23:45:46.540Z,11.30
2018-05-05T23:48:14.400Z,11.83
2018-05-05T23:50:42.463Z,12.83
2018-05-05T23:53:10.400Z,12.13
2018-05-05T23:55:38.563Z,12.77
2018-05-05T23:58:06.622Z,13.70
